Weather History for Glenwood, MN

Change the Weather History Date:

Friday, December 9, 2011

  Actual Average Record
Temperature  
Mean Temperature -14 °C -  
Max Temperature -10 °C -2 °C 12 °C (2006)
Min Temperature -18 °C -12 °C -28 °C (1955)
Degree Days  
Heating Degree Days 58    
Moisture  
Dew Point -21 °C    
Average Humidity 60    
Maximum Humidity 78    
Minimum Humidity 38    
Precipitation  
Precipitation 0.00 mm - - ()
Sea Level Pressure  
Sea Level Pressure 1024 hPa    
Wind  
Wind Speed 16 km/h (West)    
Max Wind Speed 26 km/h    
Max Gust Speed 37 km/h    
Visibility 16 kilometers    
Events      
Averages and records for this station are not official NWS values.
T = Trace of Precipitation, MM = Missing Value Source: NWS Daily Summary

Daily Weather History Graph

Daily Weather History Graph

Search for Another Location

Airport:

Trip Planner

Search our weather history database for the weather conditions in past years. The results will help you decide how hot, cold, wet, or windy it might be!

Date:

Astronomy

Dec. 09, 2011 Rise Set
Actual Time 7:49 AM CST 4:37 PM CST
Civil Twilight 7:15 AM CST 5:11 PM CST
Nautical Twilight 6:38 AM CST 5:48 PM CST
Astronomical Twilight 6:02 AM CST 6:24 PM CST
Moon 4:00 PM CST (12/9) 6:58 AM CST (12/9)
Length of Visible Light 9h 55m
Length of Day
8h 47m
Waxing Gibbous, 99% of the Moon is Illuminated
Dec 9
Waxing Gibbous
Dec 10
Full
Dec 17
Last Quarter
Dec 24
New
Jan 1
First Quarter

Hourly Weather History & Observations

Time (CST) Temp. Windchill Dew Point Humidity Pressure Visibility Wind Dir Wind Speed Gust Speed Precip Events Conditions
12:14 AM -14.0 °C -22.5 °C -19.0 °C 67% 1020.9 hPa 16.1 km West 18.5 km/h / 5.1 m/s - N/A   Clear
12:34 AM -14.0 °C -22.5 °C -19.0 °C 67% 1020.9 hPa 16.1 km West 18.5 km/h / 5.1 m/s - N/A   Clear
12:54 AM -14.0 °C -22.1 °C -19.0 °C 67% 1021.2 hPa 16.1 km West 16.7 km/h / 4.6 m/s - N/A   Clear
1:14 AM -14.0 °C -22.1 °C -19.0 °C 67% 1020.9 hPa 16.1 km West 16.7 km/h / 4.6 m/s - N/A   Clear
1:34 AM -15.0 °C -23.3 °C -19.0 °C 72% 1020.9 hPa 16.1 km West 16.7 km/h / 4.6 m/s - N/A   Clear
1:54 AM -15.0 °C -22.8 °C -19.0 °C 72% 1020.9 hPa 16.1 km West 14.8 km/h / 4.1 m/s - N/A   Clear
2:14 AM -15.0 °C -23.8 °C -19.0 °C 72% 1020.9 hPa 16.1 km West 18.5 km/h / 5.1 m/s - N/A   Clear
2:34 AM -15.0 °C -23.3 °C -19.0 °C 72% 1021.2 hPa 16.1 km West 16.7 km/h / 4.6 m/s - N/A   Clear
2:54 AM -15.0 °C -23.3 °C -19.0 °C 72% 1021.2 hPa 16.1 km West 16.7 km/h / 4.6 m/s - N/A   Clear
3:13 AM -16.0 °C -24.1 °C -19.0 °C 78% 1021.6 hPa 16.1 km West 14.8 km/h / 4.1 m/s - N/A   Clear
3:34 AM -16.0 °C -24.1 °C -19.0 °C 78% 1021.6 hPa 16.1 km West 14.8 km/h / 4.1 m/s - N/A   Clear
3:54 AM -16.0 °C -24.6 °C -19.0 °C 78% 1021.6 hPa 16.1 km West 16.7 km/h / 4.6 m/s - N/A   Clear
4:13 AM -16.0 °C -24.1 °C -20.0 °C 72% 1021.6 hPa 16.1 km West 14.8 km/h / 4.1 m/s - N/A   Clear
4:34 AM -16.0 °C -24.6 °C -20.0 °C 72% 1021.6 hPa 16.1 km West 16.7 km/h / 4.6 m/s - N/A   Clear
4:53 AM -16.0 °C -24.1 °C -20.0 °C 72% 1021.9 hPa 16.1 km West 14.8 km/h / 4.1 m/s - N/A   Clear
5:14 AM -16.0 °C -24.1 °C -20.0 °C 72% 1021.9 hPa 16.1 km West 14.8 km/h / 4.1 m/s - N/A   Clear
5:34 AM -17.0 °C -22.4 °C -21.0 °C 72% 1022.2 hPa 16.1 km West 7.4 km/h / 2.1 m/s - N/A   Clear
5:54 AM -17.0 °C -23.3 °C -21.0 °C 72% 1022.2 hPa 16.1 km West 9.3 km/h / 2.6 m/s - N/A   Clear
6:14 AM -18.0 °C -25.9 °C -21.0 °C 78% 1022.6 hPa 16.1 km West 13.0 km/h / 3.6 m/s - N/A   Clear
6:34 AM -17.0 °C -25.3 °C -21.0 °C 72% 1022.9 hPa 16.1 km West 14.8 km/h / 4.1 m/s - N/A   Clear
6:53 AM -17.0 °C -24.7 °C -21.0 °C 72% 1023.2 hPa 16.1 km West 13.0 km/h / 3.6 m/s - N/A   Clear
7:14 AM -17.0 °C -24.7 °C -21.0 °C 72% 1023.2 hPa 16.1 km West 13.0 km/h / 3.6 m/s - N/A   Clear
7:34 AM -17.0 °C -24.0 °C -21.0 °C 72% 1023.6 hPa 16.1 km West 11.1 km/h / 3.1 m/s - N/A   Clear
7:54 AM -18.0 °C -27.1 °C -21.0 °C 78% 1023.6 hPa 16.1 km West 16.7 km/h / 4.6 m/s - N/A   Clear
8:14 AM -17.0 °C -25.3 °C -21.0 °C 72% 1023.9 hPa 16.1 km West 14.8 km/h / 4.1 m/s - N/A   Clear
8:33 AM -17.0 °C -25.8 °C -21.0 °C 72% 1023.9 hPa 16.1 km West 16.7 km/h / 4.6 m/s - N/A   Clear
8:54 AM -16.0 °C -24.6 °C -20.0 °C 72% 1024.3 hPa 16.1 km West 16.7 km/h / 4.6 m/s - N/A   Clear
9:13 AM -16.0 °C -24.1 °C -20.0 °C 72% 1024.6 hPa 16.1 km WNW 14.8 km/h / 4.1 m/s - N/A   Clear
9:34 AM -15.0 °C -22.8 °C -20.0 °C 66% 1024.6 hPa 16.1 km West 14.8 km/h / 4.1 m/s - N/A   Clear
9:54 AM -14.0 °C -23.7 °C -20.0 °C 61% 1024.9 hPa 16.1 km West 24.1 km/h / 6.7 m/s - N/A   Clear
10:14 AM -14.0 °C -21.6 °C -19.0 °C 67% 1025.3 hPa 16.1 km West 14.8 km/h / 4.1 m/s - N/A   Clear
10:34 AM -13.0 °C -20.8 °C -20.0 °C 57% 1025.6 hPa 16.1 km West 16.7 km/h / 4.6 m/s - N/A   Clear
10:54 AM -13.0 °C -22.1 °C -20.0 °C 57% 1025.6 hPa 16.1 km West 22.2 km/h / 6.2 m/s - N/A   Clear
11:14 AM -12.0 °C -20.4 °C -20.0 °C 52% 1025.6 hPa 16.1 km WNW 20.4 km/h / 5.7 m/s 29.6 km/h / 8.2 m/s N/A   Clear
11:34 AM -12.0 °C -20.0 °C -21.0 °C 48% 1025.6 hPa 16.1 km WNW 18.5 km/h / 5.1 m/s - N/A   Clear
11:54 AM -12.0 °C -21.5 °C -21.0 °C 48% 1025.6 hPa 16.1 km West 25.9 km/h / 7.2 m/s - N/A   Clear
12:14 PM -11.0 °C -18.8 °C -21.0 °C 45% 1025.3 hPa 16.1 km West 18.5 km/h / 5.1 m/s - N/A   Clear
12:34 PM -11.0 °C -18.8 °C -21.0 °C 45% 1025.3 hPa 16.1 km West 18.5 km/h / 5.1 m/s - N/A   Unknown
12:54 PM -10.0 °C -18.6 °C -21.0 °C 41% 1025.3 hPa 16.1 km West 24.1 km/h / 6.7 m/s 31.5 km/h / 8.7 m/s N/A   Clear
1:14 PM -10.0 °C -17.5 °C -21.0 °C 41% 1025.3 hPa 16.1 km West 18.5 km/h / 5.1 m/s - N/A   Clear
1:34 PM -10.0 °C -18.2 °C -22.0 °C 38% 1025.3 hPa 16.1 km West 22.2 km/h / 6.2 m/s - N/A   Clear
1:54 PM -10.0 °C -18.2 °C -22.0 °C 38% 1025.3 hPa 16.1 km West 22.2 km/h / 6.2 m/s - N/A   Clear
2:13 PM -10.0 °C -18.6 °C -22.0 °C 38% 1025.3 hPa 16.1 km West 24.1 km/h / 6.7 m/s - N/A   Clear
2:34 PM -10.0 °C -18.6 °C -22.0 °C 38% 1025.6 hPa 16.1 km West 24.1 km/h / 6.7 m/s 37.0 km/h / 10.3 m/s N/A   Clear
2:53 PM -10.0 °C -17.9 °C -22.0 °C 38% 1025.3 hPa 16.1 km West 20.4 km/h / 5.7 m/s - N/A   Clear
3:14 PM -10.0 °C -17.9 °C -22.0 °C 38% 1025.3 hPa 16.1 km West 20.4 km/h / 5.7 m/s - N/A   Clear
3:34 PM -10.0 °C -17.5 °C -22.0 °C 38% 1025.3 hPa 16.1 km West 18.5 km/h / 5.1 m/s - N/A   Clear
3:54 PM -11.0 °C -18.8 °C -22.0 °C 41% 1025.6 hPa 16.1 km West 18.5 km/h / 5.1 m/s - N/A   Clear
4:14 PM -11.0 °C -17.4 °C -22.0 °C 41% 1025.6 hPa 16.1 km West 13.0 km/h / 3.6 m/s - N/A   Clear
4:33 PM -12.0 °C -18.0 °C -22.0 °C 44% 1026.0 hPa 16.1 km West 11.1 km/h / 3.1 m/s - N/A   Clear
4:53 PM -13.0 °C -19.2 °C -22.0 °C 48% 1026.0 hPa 16.1 km WSW 11.1 km/h / 3.1 m/s - N/A   Clear
5:14 PM -13.0 °C -18.5 °C -22.0 °C 48% 1026.0 hPa 16.1 km WSW 9.3 km/h / 2.6 m/s - N/A   Clear
5:33 PM -13.0 °C -19.2 °C -22.0 °C 48% 1026.0 hPa 16.1 km WSW 11.1 km/h / 3.1 m/s - N/A   Clear
5:54 PM -14.0 °C -19.7 °C -22.0 °C 52% 1026.3 hPa 16.1 km WSW 9.3 km/h / 2.6 m/s - N/A   Clear
6:13 PM -13.0 °C -20.4 °C -21.0 °C 52% 1026.6 hPa 16.1 km WSW 14.8 km/h / 4.1 m/s - N/A   Clear
6:34 PM -13.0 °C -20.4 °C -21.0 °C 52% 1026.3 hPa 16.1 km West 14.8 km/h / 4.1 m/s - N/A   Clear
6:53 PM -13.0 °C -20.4 °C -21.0 °C 52% 1026.0 hPa 16.1 km WSW 14.8 km/h / 4.1 m/s - N/A   Clear
7:13 PM -14.0 °C -20.4 °C -21.0 °C 56% 1026.0 hPa 16.1 km WSW 11.1 km/h / 3.1 m/s - N/A   Clear
7:33 PM -14.0 °C -21.0 °C -21.0 °C 56% 1026.3 hPa 16.1 km WSW 13.0 km/h / 3.6 m/s - N/A   Clear
7:54 PM -14.0 °C -20.4 °C -21.0 °C 56% 1026.0 hPa 16.1 km WSW 11.1 km/h / 3.1 m/s - N/A   Clear
8:13 PM -14.0 °C -19.7 °C -22.0 °C 52% 1026.0 hPa 16.1 km WSW 9.3 km/h / 2.6 m/s - N/A   Clear
8:33 PM -15.0 °C -21.6 °C -22.0 °C 56% 1025.6 hPa 16.1 km SW 11.1 km/h / 3.1 m/s - N/A   Clear
8:53 PM -14.0 °C -20.4 °C -22.0 °C 52% 1025.6 hPa 16.1 km SW 11.1 km/h / 3.1 m/s - N/A   Clear
9:13 PM -15.0 °C -21.6 °C -22.0 °C 56% 1025.6 hPa 16.1 km SW 11.1 km/h / 3.1 m/s - N/A   Clear
9:34 PM -15.0 °C -20.9 °C -22.0 °C 56% 1025.6 hPa 16.1 km SW 9.3 km/h / 2.6 m/s - N/A   Clear
9:53 PM -14.0 °C -18.9 °C -21.0 °C 56% 1025.6 hPa 16.1 km SW 7.4 km/h / 2.1 m/s - N/A   Clear
10:14 PM -15.0 °C -21.6 °C -21.0 °C 61% 1025.3 hPa 16.1 km SW 11.1 km/h / 3.1 m/s - N/A   Clear
10:34 PM -14.0 °C -21.6 °C -20.0 °C 61% 1024.9 hPa 16.1 km SW 14.8 km/h / 4.1 m/s - N/A   Clear
10:53 PM -14.0 °C -21.0 °C -20.0 °C 61% 1024.9 hPa 16.1 km WSW 13.0 km/h / 3.6 m/s - N/A   Clear
11:13 PM -14.0 °C -21.0 °C -20.0 °C 61% 1024.9 hPa 16.1 km SW 13.0 km/h / 3.6 m/s - N/A   Clear
11:33 PM -16.0 °C -24.1 °C -20.0 °C 72% 1024.9 hPa 16.1 km SW 14.8 km/h / 4.1 m/s - N/A   Clear
11:53 PM -15.0 °C -21.6 °C -20.0 °C 66% 1024.9 hPa 16.1 km SSW 11.1 km/h / 3.1 m/s - N/A   Clear